sensor_id;sensor_type;location;lat;lon;timestamp;pressure;altitude;pressure_sealevel;temperature;humidity
61908;BME280;47864;52.526;19.672;2023-09-30T00:01:10;153933.16;;;19.69;88.48
61908;BME280;47864;52.526;19.672;2023-09-30T00:03:12;153948.47;;;19.75;89.72
61908;BME280;47864;52.526;19.672;2023-09-30T00:05:14;153905.22;;;19.58;90.04
61908;BME280;47864;52.526;19.672;2023-09-30T00:07:15;153942.09;;;19.72;90.50
61908;BME280;47864;52.526;19.672;2023-09-30T00:09:17;153944.63;;;19.73;89.70
61908;BME280;47864;52.526;19.672;2023-09-30T00:11:18;153907.75;;;19.59;89.53
61908;BME280;47864;52.526;19.672;2023-09-30T00:13:20;153895.00;;;19.54;90.08
61908;BME280;47864;52.526;19.672;2023-09-30T00:15:22;153910.31;;;19.60;89.57
61908;BME280;47864;52.526;19.672;2023-09-30T00:17:24;153846.66;;;19.34;90.58
61908;BME280;47864;52.526;19.672;2023-09-30T00:19:25;153905.22;;;19.58;89.91
61908;BME280;47864;52.526;19.672;2023-09-30T00:21:27;153893.72;;;19.53;89.12
61908;BME280;47864;52.526;19.672;2023-09-30T00:23:28;153889.94;;;19.52;89.18
61908;BME280;47864;52.526;19.672;2023-09-30T00:25:30;153906.47;;;19.58;88.21
61908;BME280;47864;52.526;19.672;2023-09-30T00:27:31;153921.72;;;19.64;90.31
61908;BME280;47864;52.526;19.672;2023-09-30T00:29:33;153877.16;;;19.47;92.90
61908;BME280;47864;52.526;19.672;2023-09-30T00:31:35;153914.06;;;19.61;90.93
61908;BME280;47864;52.526;19.672;2023-09-30T00:33:37;153850.44;;;19.36;90.64
61908;BME280;47864;52.526;19.672;2023-09-30T00:35:38;153869.50;;;19.44;90.36
61908;BME280;47864;52.526;19.672;2023-09-30T00:37:40;153930.66;;;19.68;89.79
61908;BME280;47864;52.526;19.672;2023-09-30T00:39:42;153911.53;;;19.60;88.48
61908;BME280;47864;52.526;19.672;2023-09-30T00:41:43;153851.72;;;19.36;87.67
61908;BME280;47864;52.526;19.672;2023-09-30T00:43:48;153849.16;;;19.35;87.92
61908;BME280;47864;52.526;19.672;2023-09-30T00:45:52;153836.47;;;19.30;88.01
61908;BME280;47864;52.526;19.672;2023-09-30T00:47:56;153839.00;;;19.31;89.34
61908;BME280;47864;52.526;19.672;2023-09-30T00:49:59;153910.31;;;19.60;91.06
61908;BME280;47864;52.526;19.672;2023-09-30T00:52:00;153884.84;;;19.50;88.70
61908;BME280;47864;52.526;19.672;2023-09-30T00:54:03;153873.31;;;19.45;90.01
61908;BME280;47864;52.526;19.672;2023-09-30T00:56:05;153931.88;;;19.68;88.58
61908;BME280;47864;52.526;19.672;2023-09-30T00:58:07;153915.34;;;19.62;88.43
61908;BME280;47864;52.526;19.672;2023-09-30T01:00:09;153868.28;;;19.43;89.30
61908;BME280;47864;52.526;19.672;2023-09-30T01:02:12;153897.56;;;19.55;91.24
61908;BME280;47864;52.526;19.672;2023-09-30T01:04:14;153874.59;;;19.46;91.43
61908;BME280;47864;52.526;19.672;2023-09-30T01:06:16;153845.38;;;19.34;90.86
61908;BME280;47864;52.526;19.672;2023-09-30T01:08:18;153877.16;;;19.47;89.22
61908;BME280;47864;52.526;19.672;2023-09-30T01:10:20;153837.72;;;19.31;89.55
61908;BME280;47864;52.526;19.672;2023-09-30T01:12:21;153807.22;;;19.19;90.01
61908;BME280;47864;52.526;19.672;2023-09-30T01:14:31;153840.28;;;19.32;90.03
61908;BME280;47864;52.526;19.672;2023-09-30T01:16:33;153884.84;;;19.50;88.57
61908;BME280;47864;52.526;19.672;2023-09-30T01:18:35;153900.09;;;19.56;89.18
61908;BME280;47864;52.526;19.672;2023-09-30T01:20:37;153887.41;;;19.51;90.83
61908;BME280;47864;52.526;19.672;2023-09-30T01:22:38;153882.31;;;19.49;93.30
61908;BME280;47864;52.526;19.672;2023-09-30T01:24:41;153841.56;;;19.32;93.09
61908;BME280;47864;52.526;19.672;2023-09-30T01:26:43;153786.84;;;19.11;94.94
61908;BME280;47864;52.526;19.672;2023-09-30T01:28:45;153812.28;;;19.21;96.38
61908;BME280;47864;52.526;19.672;2023-09-30T01:30:46;153746.16;;;18.94;97.70
61908;BME280;47864;52.526;19.672;2023-09-30T01:32:48;153788.13;;;19.11;98.06
61908;BME280;47864;52.526;19.672;2023-09-30T01:34:50;153744.94;;;18.94;100.00
61908;BME280;47864;52.526;19.672;2023-09-30T01:36:51;153770.31;;;19.04;100.00
61908;BME280;47864;52.526;19.672;2023-09-30T01:38:53;153764.00;;;19.02;100.00
61908;BME280;47864;52.526;19.672;2023-09-30T01:40:54;153751.25;;;18.96;100.00
61908;BME280;47864;52.526;19.672;2023-09-30T01:43:00;153772.88;;;19.05;100.00
61908;BME280;47864;52.526;19.672;2023-09-30T01:45:01;153742.38;;;18.93;100.00
61908;BME280;47864;52.526;19.672;2023-09-30T01:47:03;153723.31;;;18.85;100.00
61908;BME280;47864;52.526;19.672;2023-09-30T01:49:04;153718.22;;;18.83;100.00
61908;BME280;47864;52.526;19.672;2023-09-30T01:51:06;153767.78;;;19.03;99.30
61908;BME280;47864;52.526;19.672;2023-09-30T01:53:07;153696.59;;;18.75;100.00
61908;BME280;47864;52.526;19.672;2023-09-30T01:55:09;153694.06;;;18.74;100.00
61908;BME280;47864;52.526;19.672;2023-09-30T01:57:10;153688.94;;;18.72;100.00
61908;BME280;47864;52.526;19.672;2023-09-30T01:59:12;153732.19;;;18.89;100.00
61908;BME280;47864;52.526;19.672;2023-09-30T02:01:14;153716.94;;;18.83;100.00
61908;BME280;47864;52.526;19.672;2023-09-30T02:03:15;153742.38;;;18.93;100.00
61908;BME280;47864;52.526;19.672;2023-09-30T02:05:17;153725.81;;;18.86;100.00
61908;BME280;47864;52.526;19.672;2023-09-30T02:07:18;153729.63;;;18.88;100.00
61908;BME280;47864;52.526;19.672;2023-09-30T02:09:20;153748.69;;;18.95;100.00
61908;BME280;47864;52.526;19.672;2023-09-30T02:11:21;153790.66;;;19.12;99.86
61908;BME280;47864;52.526;19.672;2023-09-30T02:13:23;153746.16;;;18.94;98.66
61908;BME280;47864;52.526;19.672;2023-09-30T02:15:25;153799.59;;;19.16;99.34
61908;BME280;47864;52.526;19.672;2023-09-30T02:17:26;153798.31;;;19.15;100.00
61908;BME280;47864;52.526;19.672;2023-09-30T02:19:28;153822.47;;;19.25;100.00
61908;BME280;47864;52.526;19.672;2023-09-30T02:21:30;153804.69;;;19.18;100.00
61908;BME280;47864;52.526;19.672;2023-09-30T02:23:31;153800.84;;;19.16;100.00
61908;BME280;47864;52.526;19.672;2023-09-30T02:25:33;153821.22;;;19.24;100.00
61908;BME280;47864;52.526;19.672;2023-09-30T02:27:34;153775.41;;;19.06;100.00
61908;BME280;47864;52.526;19.672;2023-09-30T02:29:36;153822.47;;;19.25;100.00
61908;BME280;47864;52.526;19.672;2023-09-30T02:31:38;153808.47;;;19.19;100.00
61908;BME280;47864;52.526;19.672;2023-09-30T02:33:39;153713.13;;;18.81;100.00
61908;BME280;47864;52.526;19.672;2023-09-30T02:35:44;153706.75;;;18.79;100.00
61908;BME280;47864;52.526;19.672;2023-09-30T02:37:46;153664.78;;;18.62;100.00
61908;BME280;47864;52.526;19.672;2023-09-30T02:39:48;153645.69;;;18.54;100.00
61908;BME280;47864;52.526;19.672;2023-09-30T02:41:50;153607.53;;;18.39;100.00
61908;BME280;47864;52.526;19.672;2023-09-30T02:43:52;153605.00;;;18.38;100.00
61908;BME280;47864;52.526;19.672;2023-09-30T02:45:53;153596.13;;;18.35;100.00
61908;BME280;47864;52.526;19.672;2023-09-30T02:47:55;153559.28;;;18.20;100.00
61908;BME280;47864;52.526;19.672;2023-09-30T02:49:57;153577.06;;;18.27;100.00
61908;BME280;47864;52.526;19.672;2023-09-30T02:51:59;153617.75;;;18.43;100.00
61908;BME280;47864;52.526;19.672;2023-09-30T02:54:02;153654.63;;;18.58;100.00
61908;BME280;47864;52.526;19.672;2023-09-30T02:56:04;153629.16;;;18.48;100.00
61908;BME280;47864;52.526;19.672;2023-09-30T02:58:06;153645.69;;;18.54;100.00
61908;BME280;47864;52.526;19.672;2023-09-30T03:00:09;153612.66;;;18.41;100.00
61908;BME280;47864;52.526;19.672;2023-09-30T03:02:11;153625.34;;;18.46;100.00
61908;BME280;47864;52.526;19.672;2023-09-30T03:04:13;153593.59;;;18.34;100.00
61908;BME280;47864;52.526;19.672;2023-09-30T03:06:14;153563.06;;;18.21;100.00
61908;BME280;47864;52.526;19.672;2023-09-30T03:08:16;153607.53;;;18.39;100.00
61908;BME280;47864;52.526;19.672;2023-09-30T03:10:17;153608.81;;;18.40;100.00
61908;BME280;47864;52.526;19.672;2023-09-30T03:12:19;153610.09;;;18.40;100.00
61908;BME280;47864;52.526;19.672;2023-09-30T03:14:21;153657.19;;;18.59;100.00
61908;BME280;47864;52.526;19.672;2023-09-30T03:16:22;153645.69;;;18.54;100.00
61908;BME280;47864;52.526;19.672;2023-09-30T03:18:24;153666.06;;;18.62;100.00
61908;BME280;47864;52.526;19.672;2023-09-30T03:20:25;153677.53;;;18.67;100.00
61908;BME280;47864;52.526;19.672;2023-09-30T03:22:27;153658.47;;;18.59;100.00
61908;BME280;47864;52.526;19.672;2023-09-30T03:24:28;153669.88;;;18.64;100.00
61908;BME280;47864;52.526;19.672;2023-09-30T03:26:31;153694.06;;;18.74;100.00
61908;BME280;47864;52.526;19.672;2023-09-30T03:28:32;153699.16;;;18.76;100.00
61908;BME280;47864;52.526;19.672;2023-09-30T03:30:34;153617.75;;;18.43;100.00
61908;BME280;47864;52.526;19.672;2023-09-30T03:32:35;153523.66;;;18.06;100.00
61908;BME280;47864;52.526;19.672;2023-09-30T03:34:37;153582.13;;;18.29;100.00
61908;BME280;47864;52.526;19.672;2023-09-30T03:36:39;153636.81;;;18.51;100.00
61908;BME280;47864;52.526;19.672;2023-09-30T03:38:40;153622.78;;;18.45;100.00
61908;BME280;47864;52.526;19.672;2023-09-30T03:40:42;153669.88;;;18.64;100.00
61908;BME280;47864;52.526;19.672;2023-09-30T03:42:44;153673.72;;;18.66;100.00
61908;BME280;47864;52.526;19.672;2023-09-30T03:44:46;153672.44;;;18.65;100.00
61908;BME280;47864;52.526;19.672;2023-09-30T03:46:47;153677.53;;;18.67;100.00
61908;BME280;47864;52.526;19.672;2023-09-30T03:48:49;153664.78;;;18.62;100.00
61908;BME280;47864;52.526;19.672;2023-09-30T03:50:51;153666.06;;;18.62;100.00
61908;BME280;47864;52.526;19.672;2023-09-30T03:53:01;153663.50;;;18.61;100.00
61908;BME280;47864;52.526;19.672;2023-09-30T03:55:03;153710.56;;;18.80;100.00
61908;BME280;47864;52.526;19.672;2023-09-30T03:57:04;153683.84;;;18.70;100.00
61908;BME280;47864;52.526;19.672;2023-09-30T03:59:06;153705.47;;;18.78;100.00
61908;BME280;47864;52.526;19.672;2023-09-30T04:01:08;153671.16;;;18.65;100.00
61908;BME280;47864;52.526;19.672;2023-09-30T04:03:10;153672.44;;;18.65;100.00
61908;BME280;47864;52.526;19.672;2023-09-30T04:05:12;153702.97;;;18.77;100.00
61908;BME280;47864;52.526;19.672;2023-09-30T04:07:13;153739.81;;;18.92;100.00
61908;BME280;47864;52.526;19.672;2023-09-30T04:09:15;153711.84;;;18.81;100.00
61908;BME280;47864;52.526;19.672;2023-09-30T04:11:16;153746.16;;;18.94;100.00
61908;BME280;47864;52.526;19.672;2023-09-30T04:13:18;153730.91;;;18.88;100.00
61908;BME280;47864;52.526;19.672;2023-09-30T04:15:19;153692.78;;;18.73;100.00
61908;BME280;47864;52.526;19.672;2023-09-30T04:17:21;153682.63;;;18.69;100.00
61908;BME280;47864;52.526;19.672;2023-09-30T04:19:23;153692.78;;;18.73;100.00
61908;BME280;47864;52.526;19.672;2023-09-30T04:21:24;153569.44;;;18.24;100.00
61908;BME280;47864;52.526;19.672;2023-09-30T04:23:26;153657.19;;;18.59;100.00
61908;BME280;47864;52.526;19.672;2023-09-30T04:25:27;153603.72;;;18.38;100.00
61908;BME280;47864;52.526;19.672;2023-09-30T04:27:29;153620.28;;;18.44;100.00
61908;BME280;47864;52.526;19.672;2023-09-30T04:29:30;153631.72;;;18.49;100.00
61908;BME280;47864;52.526;19.672;2023-09-30T04:31:32;153603.72;;;18.38;100.00
61908;BME280;47864;52.526;19.672;2023-09-30T04:33:34;153622.78;;;18.45;100.00
61908;BME280;47864;52.526;19.672;2023-09-30T04:35:35;153582.13;;;18.29;100.00
61908;BME280;47864;52.526;19.672;2023-09-30T04:37:37;153602.44;;;18.37;100.00
61908;BME280;47864;52.526;19.672;2023-09-30T04:39:39;153592.31;;;18.33;100.00
61908;BME280;47864;52.526;19.672;2023-09-30T04:41:41;153648.22;;;18.55;100.00
61908;BME280;47864;52.526;19.672;2023-09-30T04:43:42;153603.72;;;18.38;100.00
61908;BME280;47864;52.526;19.672;2023-09-30T04:45:44;153554.19;;;18.18;100.00
61908;BME280;47864;52.526;19.672;2023-09-30T04:47:45;153575.78;;;18.27;100.00
61908;BME280;47864;52.526;19.672;2023-09-30T04:49:47;153630.44;;;18.48;100.00
61908;BME280;47864;52.526;19.672;2023-09-30T04:51:48;153607.53;;;18.39;100.00
61908;BME280;47864;52.526;19.672;2023-09-30T04:53:50;153630.44;;;18.48;100.00
61908;BME280;47864;52.526;19.672;2023-09-30T04:55:51;153625.34;;;18.46;100.00
61908;BME280;47864;52.526;19.672;2023-09-30T04:57:53;153645.69;;;18.54;100.00
61908;BME280;47864;52.526;19.672;2023-09-30T04:59:55;153619.00;;;18.44;100.00
61908;BME280;47864;52.526;19.672;2023-09-30T05:01:57;153677.53;;;18.67;100.00
61908;BME280;47864;52.526;19.672;2023-09-30T05:03:58;153652.09;;;18.57;100.00
61908;BME280;47864;52.526;19.672;2023-09-30T05:06:00;153658.47;;;18.59;100.00
61908;BME280;47864;52.526;19.672;2023-09-30T05:08:02;153681.34;;;18.69;100.00
61908;BME280;47864;52.526;19.672;2023-09-30T05:10:04;153617.75;;;18.43;100.00
61908;BME280;47864;52.526;19.672;2023-09-30T05:12:06;153638.06;;;18.51;100.00
61908;BME280;47864;52.526;19.672;2023-09-30T05:14:07;153646.94;;;18.55;100.00
61908;BME280;47864;52.526;19.672;2023-09-30T05:16:09;153677.53;;;18.67;100.00
61908;BME280;47864;52.526;19.672;2023-09-30T05:18:10;153711.84;;;18.81;100.00
61908;BME280;47864;52.526;19.672;2023-09-30T05:20:13;153722.03;;;18.85;100.00
61908;BME280;47864;52.526;19.672;2023-09-30T05:22:14;153688.94;;;18.72;100.00
61908;BME280;47864;52.526;19.672;2023-09-30T05:24:16;153701.69;;;18.77;100.00
61908;BME280;47864;52.526;19.672;2023-09-30T05:26:17;153719.47;;;18.84;100.00
61908;BME280;47864;52.526;19.672;2023-09-30T05:28:22;153673.72;;;18.66;100.00
61908;BME280;47864;52.526;19.672;2023-09-30T05:30:24;153697.88;;;18.75;100.00
61908;BME280;47864;52.526;19.672;2023-09-30T05:32:25;153681.34;;;18.69;100.00
61908;BME280;47864;52.526;19.672;2023-09-30T05:34:27;153756.34;;;18.98;100.00
61908;BME280;47864;52.526;19.672;2023-09-30T05:36:29;153733.47;;;18.89;100.00
61908;BME280;47864;52.526;19.672;2023-09-30T05:38:30;153743.66;;;18.93;100.00
61908;BME280;47864;52.526;19.672;2023-09-30T05:40:32;153769.03;;;19.04;100.00
61908;BME280;47864;52.526;19.672;2023-09-30T05:42:33;153779.25;;;19.08;100.00
61908;BME280;47864;52.526;19.672;2023-09-30T05:44:35;153785.63;;;19.10;100.00
61908;BME280;47864;52.526;19.672;2023-09-30T05:46:36;153748.69;;;18.95;100.00
61908;BME280;47864;52.526;19.672;2023-09-30T05:48:38;153752.53;;;18.97;100.00
61908;BME280;47864;52.526;19.672;2023-09-30T05:50:40;153795.75;;;19.14;100.00
61908;BME280;47864;52.526;19.672;2023-09-30T05:52:42;153779.25;;;19.08;100.00
61908;BME280;47864;52.526;19.672;2023-09-30T05:54:44;153774.16;;;19.06;100.00
61908;BME280;47864;52.526;19.672;2023-09-30T05:56:45;153769.03;;;19.04;100.00
61908;BME280;47864;52.526;19.672;2023-09-30T05:58:47;153783.06;;;19.09;100.00
61908;BME280;47864;52.526;19.672;2023-09-30T06:00:48;153842.84;;;19.33;100.00
61908;BME280;47864;52.526;19.672;2023-09-30T06:02:51;153850.44;;;19.36;100.00
61908;BME280;47864;52.526;19.672;2023-09-30T06:04:53;153825.03;;;19.26;100.00
61908;BME280;47864;52.526;19.672;2023-09-30T06:06:55;153833.91;;;19.29;100.00
61908;BME280;47864;52.526;19.672;2023-09-30T06:08:57;153833.91;;;19.29;100.00
61908;BME280;47864;52.526;19.672;2023-09-30T06:10:59;153825.03;;;19.26;100.00
61908;BME280;47864;52.526;19.672;2023-09-30T06:13:00;153855.53;;;19.38;100.00
61908;BME280;47864;52.526;19.672;2023-09-30T06:15:02;153812.28;;;19.21;100.00
61908;BME280;47864;52.526;19.672;2023-09-30T06:17:04;153799.59;;;19.16;100.00
61908;BME280;47864;52.526;19.672;2023-09-30T06:19:05;153832.63;;;19.29;100.00
61908;BME280;47864;52.526;19.672;2023-09-30T06:21:07;153835.19;;;19.30;100.00
61908;BME280;47864;52.526;19.672;2023-09-30T06:23:08;153805.97;;;19.18;100.00
61908;BME280;47864;52.526;19.672;2023-09-30T06:25:11;153811.00;;;19.20;100.00
61908;BME280;47864;52.526;19.672;2023-09-30T06:27:13;153805.97;;;19.18;100.00
61908;BME280;47864;52.526;19.672;2023-09-30T06:29:15;153766.50;;;19.02;100.00
61908;BME280;47864;52.526;19.672;2023-09-30T06:31:16;153780.53;;;19.08;100.00
61908;BME280;47864;52.526;19.672;2023-09-30T06:33:18;153840.28;;;19.32;100.00
61908;BME280;47864;52.526;19.672;2023-09-30T06:35:20;153767.78;;;19.03;100.00
61908;BME280;47864;52.526;19.672;2023-09-30T06:37:25;153799.59;;;19.16;100.00
61908;BME280;47864;52.526;19.672;2023-09-30T06:39:26;153818.66;;;19.23;100.00
61908;BME280;47864;52.526;19.672;2023-09-30T06:41:28;153819.94;;;19.24;100.00
61908;BME280;47864;52.526;19.672;2023-09-30T06:43:29;153780.53;;;19.08;100.00
61908;BME280;47864;52.526;19.672;2023-09-30T06:45:31;153836.47;;;19.30;100.00
61908;BME280;47864;52.526;19.672;2023-09-30T06:47:33;153798.31;;;19.15;100.00
61908;BME280;47864;52.526;19.672;2023-09-30T06:49:35;153780.53;;;19.08;100.00
61908;BME280;47864;52.526;19.672;2023-09-30T06:51:36;153761.44;;;19.00;100.00
61908;BME280;47864;52.526;19.672;2023-09-30T06:53:38;153749.97;;;18.96;100.00
61908;BME280;47864;52.526;19.672;2023-09-30T06:55:39;153776.69;;;19.07;100.00
61908;BME280;47864;52.526;19.672;2023-09-30T06:57:41;153694.06;;;18.74;100.00
61908;BME280;47864;52.526;19.672;2023-09-30T06:59:43;153719.47;;;18.84;100.00
61908;BME280;47864;52.526;19.672;2023-09-30T07:01:44;153715.66;;;18.82;100.00
61908;BME280;47864;52.526;19.672;2023-09-30T07:03:45;153713.13;;;18.81;100.00
61908;BME280;47864;52.526;19.672;2023-09-30T07:05:47;153700.41;;;18.76;100.00
61908;BME280;47864;52.526;19.672;2023-09-30T07:07:49;153757.63;;;18.99;100.00
61908;BME280;47864;52.526;19.672;2023-09-30T07:09:50;153691.50;;;18.73;100.00
61908;BME280;47864;52.526;19.672;2023-09-30T07:11:52;153696.59;;;18.75;100.00
61908;BME280;47864;52.526;19.672;2023-09-30T07:13:53;153711.84;;;18.81;100.00
61908;BME280;47864;52.526;19.672;2023-09-30T07:15:55;153727.09;;;18.87;100.00
61908;BME280;47864;52.526;19.672;2023-09-30T07:17:56;153669.88;;;18.64;100.00
61908;BME280;47864;52.526;19.672;2023-09-30T07:19:58;153700.41;;;18.76;100.00
61908;BME280;47864;52.526;19.672;2023-09-30T07:21:59;153739.81;;;18.92;100.00
61908;BME280;47864;52.526;19.672;2023-09-30T07:24:06;153770.31;;;19.04;100.00
61908;BME280;47864;52.526;19.672;2023-09-30T07:26:07;153711.84;;;18.81;100.00
61908;BME280;47864;52.526;19.672;2023-09-30T07:28:09;153738.56;;;18.91;100.00
61908;BME280;47864;52.526;19.672;2023-09-30T07:30:11;153772.88;;;19.05;100.00
61908;BME280;47864;52.526;19.672;2023-09-30T07:32:13;153772.88;;;19.05;100.00
61908;BME280;47864;52.526;19.672;2023-09-30T07:34:15;153793.22;;;19.13;100.00
61908;BME280;47864;52.526;19.672;2023-09-30T07:36:16;153818.66;;;19.23;100.00
61908;BME280;47864;52.526;19.672;2023-09-30T07:38:18;153821.22;;;19.24;100.00
61908;BME280;47864;52.526;19.672;2023-09-30T07:40:19;153861.91;;;19.41;100.00
61908;BME280;47864;52.526;19.672;2023-09-30T07:42:21;153733.47;;;18.89;100.00
61908;BME280;47864;52.526;19.672;2023-09-30T07:44:22;153827.59;;;19.27;100.00
61908;BME280;47864;52.526;19.672;2023-09-30T07:46:24;153765.28;;;19.02;100.00
61908;BME280;47864;52.526;19.672;2023-09-30T07:48:26;153727.09;;;18.87;100.00
61908;BME280;47864;52.526;19.672;2023-09-30T07:50:27;153770.31;;;19.04;100.00
61908;BME280;47864;52.526;19.672;2023-09-30T07:52:29;153730.91;;;18.88;100.00
61908;BME280;47864;52.526;19.672;2023-09-30T07:54:30;153772.88;;;19.05;100.00
61908;BME280;47864;52.526;19.672;2023-09-30T07:56:32;153716.94;;;18.83;100.00
61908;BME280;47864;52.526;19.672;2023-09-30T07:58:34;153737.28;;;18.91;100.00
61908;BME280;47864;52.526;19.672;2023-09-30T08:00:36;153696.59;;;18.75;100.00
61908;BME280;47864;52.526;19.672;2023-09-30T08:02:37;153713.13;;;18.81;100.00
61908;BME280;47864;52.526;19.672;2023-09-30T08:04:39;153724.59;;;18.86;100.00
61908;BME280;47864;52.526;19.672;2023-09-30T08:06:41;153764.00;;;19.02;100.00
61908;BME280;47864;52.526;19.672;2023-09-30T08:08:42;153688.94;;;18.72;100.00
61908;BME280;47864;52.526;19.672;2023-09-30T08:10:44;153706.75;;;18.79;100.00
61908;BME280;47864;52.526;19.672;2023-09-30T08:12:45;153688.94;;;18.72;100.00
61908;BME280;47864;52.526;19.672;2023-09-30T08:14:47;153733.47;;;18.89;100.00
61908;BME280;47864;52.526;19.672;2023-09-30T08:16:49;153711.84;;;18.81;100.00
61908;BME280;47864;52.526;19.672;2023-09-30T08:18:50;153644.41;;;18.54;100.00
61908;BME280;47864;52.526;19.672;2023-09-30T08:20:52;153624.06;;;18.46;100.00
61908;BME280;47864;52.526;19.672;2023-09-30T08:22:53;153610.09;;;18.40;100.00
61908;BME280;47864;52.526;19.672;2023-09-30T08:24:55;153671.16;;;18.65;100.00
61908;BME280;47864;52.526;19.672;2023-09-30T08:26:57;153667.34;;;18.63;100.00
61908;BME280;47864;52.526;19.672;2023-09-30T08:28:58;153635.53;;;18.50;100.00
61908;BME280;47864;52.526;19.672;2023-09-30T08:31:04;153718.22;;;18.83;100.00
61908;BME280;47864;52.526;19.672;2023-09-30T08:33:05;153714.38;;;18.82;100.00
61908;BME280;47864;52.526;19.672;2023-09-30T08:35:08;153673.72;;;18.66;100.00
61908;BME280;47864;52.526;19.672;2023-09-30T08:37:09;153719.47;;;18.84;100.00
61908;BME280;47864;52.526;19.672;2023-09-30T08:39:11;153732.19;;;18.89;100.00
61908;BME280;47864;52.526;19.672;2023-09-30T08:41:24;153639.34;;;18.52;100.00
61908;BME280;47864;52.526;19.672;2023-09-30T08:43:36;153650.81;;;18.56;100.00
61908;BME280;47864;52.526;19.672;2023-09-30T08:45:39;153770.31;;;19.04;100.00
61908;BME280;47864;52.526;19.672;2023-09-30T08:47:44;153681.34;;;18.69;100.00
61908;BME280;47864;52.526;19.672;2023-09-30T08:49:48;153764.00;;;19.02;100.00
61908;BME280;47864;52.526;19.672;2023-09-30T08:51:51;153780.53;;;19.08;100.00
61908;BME280;47864;52.526;19.672;2023-09-30T08:53:57;153753.81;;;18.97;100.00
61908;BME280;47864;52.526;19.672;2023-09-30T08:55:59;153741.09;;;18.92;100.00
61908;BME280;47864;52.526;19.672;2023-09-30T08:58:02;153828.81;;;19.27;100.00
61908;BME280;47864;52.526;19.672;2023-09-30T09:00:04;153798.31;;;19.15;100.00
61908;BME280;47864;52.526;19.672;2023-09-30T09:02:09;153780.53;;;19.08;100.00
61908;BME280;47864;52.526;19.672;2023-09-30T09:04:12;153766.50;;;19.02;100.00
61908;BME280;47864;52.526;19.672;2023-09-30T09:06:15;153882.31;;;19.49;100.00
61908;BME280;47864;52.526;19.672;2023-09-30T09:08:16;153879.75;;;19.48;100.00
61908;BME280;47864;52.526;19.672;2023-09-30T09:10:18;153804.69;;;19.18;100.00
61908;BME280;47864;52.526;19.672;2023-09-30T09:12:20;153760.16;;;19.00;100.00
61908;BME280;47864;52.526;19.672;2023-09-30T09:14:41;153755.06;;;18.98;100.00
61908;BME280;47864;52.526;19.672;2023-09-30T09:16:54;153672.44;;;18.65;100.00
61908;BME280;47864;52.526;19.672;2023-09-30T09:18:56;153682.63;;;18.69;100.00
61908;BME280;47864;52.526;19.672;2023-09-30T09:21:12;153749.97;;;18.96;100.00
61908;BME280;47864;52.526;19.672;2023-09-30T09:23:14;153680.06;;;18.68;100.00
61908;BME280;47864;52.526;19.672;2023-09-30T09:25:16;153686.41;;;18.71;100.00
61908;BME280;47864;52.526;19.672;2023-09-30T09:27:18;153691.50;;;18.73;100.00
61908;BME280;47864;52.526;19.672;2023-09-30T09:29:25;153655.91;;;18.58;100.00
61908;BME280;47864;52.526;19.672;2023-09-30T09:31:29;153653.38;;;18.57;100.00
61908;BME280;47864;52.526;19.672;2023-09-30T09:33:36;153706.75;;;18.79;100.00
61908;BME280;47864;52.526;19.672;2023-09-30T09:35:38;153727.09;;;18.87;100.00
61908;BME280;47864;52.526;19.672;2023-09-30T09:37:40;153686.41;;;18.71;100.00
61908;BME280;47864;52.526;19.672;2023-09-30T09:41:53;153747.44;;;18.95;100.00
61908;BME280;47864;52.526;19.672;2023-09-30T09:43:57;153719.47;;;18.84;100.00
61908;BME280;47864;52.526;19.672;2023-09-30T09:46:00;153803.41;;;19.17;100.00
61908;BME280;47864;52.526;19.672;2023-09-30T09:48:03;153793.22;;;19.13;100.00
61908;BME280;47864;52.526;19.672;2023-09-30T09:50:05;153811.00;;;19.20;100.00
61908;BME280;47864;52.526;19.672;2023-09-30T09:52:08;153736.00;;;18.90;100.00
61908;BME280;47864;52.526;19.672;2023-09-30T09:54:11;153757.63;;;18.99;98.80
61908;BME280;47864;52.526;19.672;2023-09-30T09:56:13;153818.66;;;19.23;98.78
61908;BME280;47864;52.526;19.672;2023-09-30T09:58:15;153962.44;;;19.81;96.70
61908;BME280;47864;52.526;19.672;2023-09-30T10:00:20;154043.88;;;20.13;94.77
61908;BME280;47864;52.526;19.672;2023-09-30T10:02:22;153963.72;;;19.81;93.87
61908;BME280;47864;52.526;19.672;2023-09-30T10:04:23;153928.09;;;19.67;92.20
61908;BME280;47864;52.526;19.672;2023-09-30T10:06:25;153949.72;;;19.75;92.24
61908;BME280;47864;52.526;19.672;2023-09-30T10:08:42;153943.34;;;19.73;92.47
61908;BME280;47864;52.526;19.672;2023-09-30T10:10:46;153888.69;;;19.51;92.47
61908;BME280;47864;52.526;19.672;2023-09-30T10:12:47;153896.28;;;19.54;91.37
61908;BME280;47864;52.526;19.672;2023-09-30T10:14:49;153919.19;;;19.63;90.74
61908;BME280;47864;52.526;19.672;2023-09-30T10:16:51;154023.50;;;20.05;87.99
61908;BME280;47864;52.526;19.672;2023-09-30T10:19:15;154019.69;;;20.03;87.46
61908;BME280;47864;52.526;19.672;2023-09-30T10:21:17;153872.06;;;19.45;85.88
61908;BME280;47864;52.526;19.672;2023-09-30T10:25:34;154037.50;;;20.10;86.45
61908;BME280;47864;52.526;19.672;2023-09-30T10:27:36;154027.34;;;20.06;83.79
61908;BME280;47864;52.526;19.672;2023-09-30T10:29:41;154040.03;;;20.11;83.01